Time;durP1;ratioP1;P1;durP2;ratioP2;P2;SDS_P1;SDS_P2;PMS_P1;PMS_P2;Temp;Humidity;BMP_temperature;BMP_pressure;BME280_temperature;BME280_humidity;BME280_pressure;Samples;Min_cycle;Max_cycle;Signal;HPM_P1;HPM_P2
2021/07/06 00:01:10;;;;;;;5.70;1.20;;;;;;;18.00;100.00;100411.16;5240373;28;20044;-68
2021/07/06 00:03:41;;;;;;;2.30;1.03;;;;;;;18.01;100.00;100410.16;5240359;28;20103;-68
2021/07/06 00:06:12;;;;;;;3.40;1.50;;;;;;;17.99;100.00;100398.91;5240855;28;20038;-69
2021/07/06 00:08:44;;;;;;;4.70;1.42;;;;;;;17.99;100.00;100383.00;5233805;28;20033;-68
2021/07/06 00:11:15;;;;;;;4.65;1.20;;;;;;;17.98;100.00;100384.84;5239927;28;20025;-68
2021/07/06 00:13:46;;;;;;;2.75;1.20;;;;;;;17.95;100.00;100374.59;5239737;28;20060;-68
2021/07/06 00:16:18;;;;;;;4.72;1.30;;;;;;;17.94;100.00;100377.47;5236685;28;20021;-68
2021/07/06 00:18:49;;;;;;;3.25;1.30;;;;;;;17.92;100.00;100369.72;5237765;28;20116;-68
2021/07/06 00:21:20;;;;;;;4.30;1.57;;;;;;;17.90;100.00;100371.72;5239504;28;20506;-69
2021/07/06 00:23:52;;;;;;;3.05;1.23;;;;;;;17.86;100.00;100374.94;5239115;28;20029;-68
2021/07/06 00:26:23;;;;;;;3.10;1.43;;;;;;;17.86;100.00;100375.75;5240534;28;20025;-69
2021/07/06 00:28:55;;;;;;;2.33;1.40;;;;;;;17.86;100.00;100372.28;5240410;28;20025;-68
2021/07/06 00:31:26;;;;;;;2.43;1.23;;;;;;;17.88;100.00;100378.19;5240038;28;20029;-68
2021/07/06 00:33:58;;;;;;;3.13;1.50;;;;;;;17.82;100.00;100376.31;5234788;28;20463;-68
2021/07/06 00:36:29;;;;;;;2.43;1.00;;;;;;;17.81;100.00;100372.03;5240085;28;20305;-68
2021/07/06 00:39:00;;;;;;;4.60;1.20;;;;;;;17.80;100.00;100365.91;5239825;28;20067;-68
2021/07/06 00:41:34;;;;;;;1.92;1.10;;;;;;;17.80;100.00;100365.91;5231404;28;20461;-68
2021/07/06 00:44:12;;;;;;;4.90;1.33;;;;;;;17.78;100.00;100365.28;5239917;28;20029;-68
2021/07/06 00:46:43;;;;;;;6.63;1.35;;;;;;;17.73;100.00;100368.47;5239733;28;20029;-68
2021/07/06 00:49:15;;;;;;;2.42;1.05;;;;;;;17.74;100.00;100371.94;5238398;28;20507;-68
2021/07/06 00:51:46;;;;;;;2.90;1.17;;;;;;;17.73;100.00;100372.94;5236989;28;20037;-68
2021/07/06 00:54:18;;;;;;;2.97;1.20;;;;;;;17.70;100.00;100376.78;5239112;28;20033;-68
2021/07/06 00:56:49;;;;;;;2.70;1.10;;;;;;;17.67;100.00;100374.50;5239548;28;20014;-68
2021/07/06 00:59:23;;;;;;;2.17;0.90;;;;;;;17.63;100.00;100372.44;5238950;28;20021;-69
2021/07/06 01:01:54;;;;;;;2.42;1.17;;;;;;;17.60;100.00;100367.50;5238499;28;20041;-68
2021/07/06 01:04:26;;;;;;;2.50;1.02;;;;;;;17.58;100.00;100354.47;5239010;28;20395;-68
2021/07/06 01:06:57;;;;;;;4.30;1.10;;;;;;;17.52;100.00;100348.06;5239043;28;20445;-68
2021/07/06 01:09:29;;;;;;;2.20;1.30;;;;;;;17.51;100.00;100337.66;5238662;28;20447;-68
2021/07/06 01:12:00;;;;;;;2.67;1.10;;;;;;;17.47;100.00;100323.16;5237597;28;20036;-68
2021/07/06 01:14:32;;;;;;;2.90;1.03;;;;;;;17.41;100.00;100314.13;5237120;28;20064;-67
2021/07/06 01:17:03;;;;;;;2.88;1.65;;;;;;;17.39;100.00;100313.50;5238760;28;20492;-67
2021/07/06 01:19:36;;;;;;;1.90;1.10;;;;;;;17.38;100.00;100318.97;5239491;28;20126;-68
2021/07/06 01:22:08;;;;;;;2.63;1.23;;;;;;;17.36;100.00;100305.13;5237495;28;20038;-67
2021/07/06 01:24:39;;;;;;;2.60;1.45;;;;;;;17.34;100.00;100304.47;5238135;28;20025;-67
2021/07/06 01:27:11;;;;;;;2.77;1.30;;;;;;;17.34;100.00;100301.81;5239109;28;20091;-68
2021/07/06 01:29:42;;;;;;;1.98;1.35;;;;;;;17.32;100.00;100285.31;5235667;28;20116;-68
2021/07/06 01:32:13;;;;;;;4.15;1.80;;;;;;;17.31;100.00;100286.31;5238828;28;20033;-68
2021/07/06 01:34:45;;;;;;;3.15;1.38;;;;;;;17.31;100.00;100270.41;5238733;28;20059;-68
2021/07/06 01:37:20;;;;;;;5.65;1.30;;;;;;;17.29;100.00;100283.84;5227314;28;20061;-67
2021/07/06 01:39:51;;;;;;;1.48;1.23;;;;;;;17.28;100.00;100274.28;5237286;28;20021;-68
2021/07/06 01:42:23;;;;;;;4.88;1.70;;;;;;;17.29;100.00;100270.63;5238928;28;20025;-67
2021/07/06 01:45:08;;;;;;;2.70;1.55;;;;;;;17.32;100.00;100267.59;5238491;28;20506;-68
2021/07/06 01:47:42;;;;;;;3.30;1.52;;;;;;;17.25;100.00;100277.31;5232276;28;20059;-67
2021/07/06 01:50:16;;;;;;;1.77;1.27;;;;;;;17.25;100.00;100262.22;5238158;28;20035;-67
2021/07/06 01:52:50;;;;;;;2.75;1.38;;;;;;;17.25;100.00;100254.28;5238766;28;20026;-67
2021/07/06 01:55:24;;;;;;;2.53;1.33;;;;;;;17.22;100.00;100257.31;5238365;28;20360;-68
2021/07/06 01:57:58;;;;;;;3.42;1.20;;;;;;;17.25;100.00;100248.19;5231369;28;20124;-68
2021/07/06 02:00:31;;;;;;;3.88;1.50;;;;;;;17.21;100.00;100246.91;5231694;28;20161;-68
2021/07/06 02:03:04;;;;;;;2.33;1.48;;;;;;;17.17;100.00;100235.88;5228080;28;20134;-68
2021/07/06 02:05:39;;;;;;;1.58;1.08;;;;;;;17.16;100.00;100214.88;5237389;28;20071;-68
2021/07/06 02:08:13;;;;;;;2.05;1.40;;;;;;;17.17;100.00;100220.00;5236318;28;20033;-68
2021/07/06 02:10:47;;;;;;;3.33;1.27;;;;;;;17.13;100.00;100216.09;5236648;28;20053;-67
2021/07/06 02:13:23;;;;;;;2.75;1.65;;;;;;;17.13;100.00;100199.41;5231556;28;20021;-68
2021/07/06 02:15:56;;;;;;;3.08;1.60;;;;;;;17.09;100.00;100201.59;5237787;28;20171;-68
2021/07/06 02:18:28;;;;;;;;;;;;;;;17.29;100.00;100207.09;5238352;28;20021;-68
2021/07/06 02:20:59;;;;;;;2.83;1.63;;;;;;;17.08;100.00;100199.94;5235368;28;19913;-67
2021/07/06 02:23:31;;;;;;;3.43;1.50;;;;;;;17.03;100.00;100192.56;5237735;28;20056;-67
2021/07/06 02:26:05;;;;;;;4.63;1.80;;;;;;;17.07;100.00;100184.25;5238553;28;20021;-68
2021/07/06 02:28:37;;;;;;;3.85;1.83;;;;;;;17.04;100.00;100188.09;5237844;28;20149;-68
2021/07/06 02:31:08;;;;;;;2.55;1.40;;;;;;;17.06;100.00;100183.44;5235607;28;20104;-67
2021/07/06 02:33:39;;;;;;;3.40;1.60;;;;;;;17.05;100.00;100175.69;5237685;28;20544;-68
2021/07/06 02:36:11;;;;;;;3.60;1.53;;;;;;;17.03;100.00;100158.16;5237793;28;20029;-68
2021/07/06 02:38:42;;;;;;;2.93;1.57;;;;;;;16.99;100.00;100143.69;5231644;28;20033;-68
2021/07/06 02:41:13;;;;;;;2.58;1.50;;;;;;;17.05;100.00;100147.41;5237569;28;20029;-68
2021/07/06 02:43:44;;;;;;;5.30;1.80;;;;;;;17.06;100.00;100130.50;5236893;28;20034;-67
2021/07/06 02:46:16;;;;;;;2.45;1.20;;;;;;;17.07;100.00;100118.09;5236675;28;20087;-68
2021/07/06 02:48:47;;;;;;;4.30;1.75;;;;;;;17.10;100.00;100104.50;5238028;28;20041;-68
2021/07/06 02:51:19;;;;;;;3.78;1.85;;;;;;;17.11;100.00;100114.06;5237405;28;20052;-68
2021/07/06 02:53:50;;;;;;;2.35;1.50;;;;;;;17.12;100.00;100097.16;5235544;28;20113;-67
2021/07/06 02:56:21;;;;;;;2.97;1.27;;;;;;;17.15;100.00;100091.50;5232204;28;20043;-68
2021/07/06 02:58:53;;;;;;;3.47;1.33;;;;;;;17.10;100.00;100100.00;5237734;28;20030;-68
2021/07/06 03:01:25;;;;;;;2.67;1.42;;;;;;;17.15;100.00;100112.66;5237568;28;20037;-68
2021/07/06 03:03:57;;;;;;;4.65;1.50;;;;;;;17.14;100.00;100116.34;5236073;28;20108;-68
2021/07/06 03:06:30;;;;;;;2.83;1.40;;;;;;;17.19;100.00;100106.78;5237782;28;20080;-68
2021/07/06 03:09:01;;;;;;;4.07;1.50;;;;;;;17.17;100.00;100102.72;5237277;28;20037;-68
2021/07/06 03:11:32;;;;;;;3.97;1.73;;;;;;;17.19;100.00;100101.50;5236368;28;20445;-67
2021/07/06 03:14:04;;;;;;;4.15;1.55;;;;;;;17.20;100.00;100112.94;5229537;28;20021;-68
2021/07/06 03:16:35;;;;;;;3.22;1.42;;;;;;;17.24;100.00;100117.66;5238030;28;20017;-67
2021/07/06 03:19:06;;;;;;;3.67;1.50;;;;;;;17.26;100.00;100120.09;5237658;28;20541;-67
2021/07/06 03:21:37;;;;;;;4.18;1.25;;;;;;;17.26;100.00;100101.56;5236158;28;20517;-67
2021/07/06 03:24:09;;;;;;;7.13;2.05;;;;;;;17.31;100.00;100100.97;5237035;28;20028;-68
2021/07/06 03:26:40;;;;;;;3.28;1.27;;;;;;;17.27;100.00;100101.38;5237561;28;20486;-68
2021/07/06 03:29:11;;;;;;;1.63;1.27;;;;;;;17.31;100.00;100098.34;5238947;28;20033;-67
2021/07/06 03:31:42;;;;;;;2.63;1.20;;;;;;;17.32;100.00;100095.50;5238431;28;20124;-68
2021/07/06 03:34:14;;;;;;;3.30;1.20;;;;;;;17.37;100.00;100105.53;5240563;28;20087;-67
2021/07/06 03:36:45;;;;;;;2.50;1.08;;;;;;;17.38;100.00;100102.66;5241322;28;20075;-68
2021/07/06 03:39:16;;;;;;;3.65;1.17;;;;;;;17.41;100.00;100090.88;5236890;28;20022;-67
2021/07/06 03:41:47;;;;;;;4.83;1.20;;;;;;;17.42;100.00;100092.50;5238853;28;20025;-67
2021/07/06 03:44:19;;;;;;;2.53;1.37;;;;;;;17.43;100.00;100081.75;5239798;28;20029;-67
2021/07/06 03:46:50;;;;;;;3.03;1.30;;;;;;;17.43;100.00;100068.50;5241130;28;20028;-68
2021/07/06 03:49:22;;;;;;;6.18;1.70;;;;;;;17.46;100.00;100072.56;5238893;28;20021;-68
2021/07/06 03:51:53;;;;;;;2.72;1.33;;;;;;;17.47;100.00;100063.63;5241408;28;20036;-68
2021/07/06 03:54:24;;;;;;;3.27;1.20;;;;;;;17.50;100.00;100057.94;5240131;28;20056;-67
2021/07/06 03:56:56;;;;;;;2.05;1.20;;;;;;;17.50;100.00;100049.97;5239778;28;20462;-67
2021/07/06 03:59:28;;;;;;;2.97;1.20;;;;;;;17.52;100.00;100055.91;5236375;28;20045;-68
2021/07/06 04:01:59;;;;;;;3.40;1.35;;;;;;;17.57;100.00;100058.78;5230997;28;20045;-68
2021/07/06 04:04:31;;;;;;;2.63;1.20;;;;;;;17.57;100.00;100073.88;5236512;28;20087;-68
2021/07/06 04:07:03;;;;;;;2.45;1.10;;;;;;;17.57;100.00;100072.03;5229104;28;20026;-67
2021/07/06 04:09:34;;;;;;;3.35;1.25;;;;;;;17.57;100.00;100074.69;5239910;28;20111;-67
2021/07/06 04:12:05;;;;;;;2.03;1.30;;;;;;;17.67;100.00;100064.56;5240596;28;20013;-67
2021/07/06 04:14:37;;;;;;;2.42;1.08;;;;;;;17.70;100.00;100089.84;5238863;28;20033;-67
2021/07/06 04:17:09;;;;;;;4.38;1.35;;;;;;;17.73;100.00;100061.16;5232747;28;20136;-68
2021/07/06 04:19:40;;;;;;;3.75;1.30;;;;;;;17.75;100.00;100093.56;5240147;28;20159;-67
2021/07/06 04:22:11;;;;;;;4.22;1.10;;;;;;;17.81;100.00;100099.13;5240237;28;20028;-67
2021/07/06 04:24:42;;;;;;;3.20;1.10;;;;;;;17.84;100.00;100085.47;5238477;28;20034;-67
2021/07/06 04:27:14;;;;;;;2.58;1.27;;;;;;;17.84;100.00;100111.97;5240231;28;20521;-67
2021/07/06 04:29:47;;;;;;;3.20;1.33;;;;;;;17.85;100.00;100105.66;5239813;28;20053;-68
2021/07/06 04:32:19;;;;;;;2.72;1.23;;;;;;;17.85;100.00;100122.38;5239598;28;20435;-68
2021/07/06 04:34:50;;;;;;;4.65;1.30;;;;;;;17.88;100.00;100126.44;5231741;28;20072;-68
2021/07/06 04:37:21;;;;;;;4.97;1.33;;;;;;;17.88;100.00;100137.06;5239916;28;20030;-67
2021/07/06 04:39:53;;;;;;;5.28;1.25;;;;;;;17.91;100.00;100145.44;5239627;28;20029;-68
2021/07/06 04:42:24;;;;;;;3.50;1.13;;;;;;;17.92;100.00;100139.13;5239996;28;20033;-68
2021/07/06 04:44:55;;;;;;;8.70;1.20;;;;;;;17.93;100.00;100143.41;5231321;28;20044;-68
2021/07/06 04:47:27;;;;;;;4.30;1.43;;;;;;;17.94;100.00;100138.94;5239989;28;20390;-67
2021/07/06 04:49:58;;;;;;;3.27;1.37;;;;;;;17.94;100.00;100144.22;5234298;28;20036;-67
2021/07/06 04:52:29;;;;;;;3.35;1.30;;;;;;;17.94;100.00;100129.16;5249582;28;20520;-67
2021/07/06 04:55:01;;;;;;;4.45;1.45;;;;;;;17.90;100.00;100121.78;5245830;28;20082;-67
2021/07/06 04:57:32;;;;;;;10.45;1.75;;;;;;;17.94;100.00;100133.63;5241100;28;20044;-67
2021/07/06 05:00:04;;;;;;;3.23;1.77;;;;;;;17.94;100.00;100149.53;5235343;28;20112;-68
2021/07/06 05:02:36;;;;;;;2.15;1.20;;;;;;;17.97;100.00;100149.16;5236639;28;20042;-68
2021/07/06 05:05:09;;;;;;;3.70;1.93;;;;;;;17.96;100.00;100148.34;5251837;28;20363;-67
2021/07/06 05:07:41;;;;;;;3.15;1.30;;;;;;;18.01;100.00;100155.69;5235551;28;20029;-68
2021/07/06 05:10:13;;;;;;;4.72;1.83;;;;;;;17.99;100.00;100147.94;5238950;28;20506;-68
2021/07/06 05:12:44;;;;;;;2.83;1.30;;;;;;;18.03;100.00;100152.84;5239535;28;20017;-67
2021/07/06 05:15:15;;;;;;;4.93;1.50;;;;;;;18.05;100.00;100156.94;5234064;28;20056;-68
2021/07/06 05:17:46;;;;;;;2.22;1.27;;;;;;;18.06;100.00;100155.91;5239192;28;20032;-68
2021/07/06 05:20:18;;;;;;;5.27;1.13;;;;;;;18.08;100.00;100156.56;5238617;28;20402;-68
2021/07/06 05:22:49;;;;;;;4.33;1.50;;;;;;;18.10;100.00;100154.50;5249520;28;20435;-68
2021/07/06 05:25:20;;;;;;;2.70;1.37;;;;;;;18.07;100.00;100141.66;5233385;28;20433;-68
2021/07/06 05:27:51;;;;;;;6.07;1.43;;;;;;;18.14;100.00;100142.50;5239180;28;20401;-68
2021/07/06 05:30:23;;;;;;;4.50;1.67;;;;;;;18.13;100.00;100140.06;5238948;28;20051;-68
2021/07/06 05:32:54;;;;;;;4.00;1.52;;;;;;;18.17;100.00;100131.50;5237739;28;20110;-68
2021/07/06 05:35:26;;;;;;;4.23;1.40;;;;;;;18.18;100.00;100127.84;5233039;28;20021;-67
2021/07/06 05:37:57;;;;;;;4.10;1.90;;;;;;;18.20;100.00;100128.47;5238719;28;20071;-67
2021/07/06 05:40:28;;;;;;;2.75;1.50;;;;;;;18.25;100.00;100119.91;5238801;28;20025;-68
2021/07/06 05:43:00;;;;;;;4.10;1.90;;;;;;;18.27;100.00;100128.50;5235214;28;20058;-68
2021/07/06 05:45:31;;;;;;;3.13;1.50;;;;;;;18.30;100.00;100122.00;5234113;28;20021;-67
2021/07/06 05:48:03;;;;;;;5.50;1.75;;;;;;;18.35;100.00;100127.50;5238232;28;20026;-67
2021/07/06 05:50:34;;;;;;;4.40;1.47;;;;;;;18.38;100.00;100119.16;5238911;28;20473;-68
2021/07/06 05:53:07;;;;;;;5.03;1.70;;;;;;;18.42;100.00;100107.94;5219499;28;20390;-68
2021/07/06 05:55:40;;;;;;;3.38;1.92;;;;;;;18.47;100.00;100107.34;5236500;28;20087;-68
2021/07/06 05:58:12;;;;;;;4.45;2.25;;;;;;;18.52;100.00;100102.25;5238388;28;20064;-70
2021/07/06 06:00:44;;;;;;;2.57;1.57;;;;;;;18.56;100.00;100092.91;5238634;28;20057;-70
2021/07/06 06:03:15;;;;;;;3.17;1.50;;;;;;;18.60;100.00;100107.41;5238717;28;20084;-70
2021/07/06 06:05:47;;;;;;;5.37;2.17;;;;;;;18.62;100.00;100100.03;5229165;28;20036;-70
2021/07/06 06:08:18;;;;;;;3.97;1.37;;;;;;;18.62;100.00;100100.03;5232176;28;20026;-69
2021/07/06 06:10:50;;;;;;;4.95;1.83;;;;;;;18.71;100.00;100109.50;5228949;28;20716;-70
2021/07/06 06:13:21;;;;;;;5.43;1.70;;;;;;;18.75;100.00;100093.16;5248615;28;20021;-70
2021/07/06 06:15:53;;;;;;;2.23;1.50;;;;;;;18.79;100.00;100100.53;5235847;28;20033;-70
2021/07/06 06:18:24;;;;;;;4.20;1.60;;;;;;;18.76;100.00;100084.19;5238785;28;20103;-70
2021/07/06 06:20:56;;;;;;;3.10;1.57;;;;;;;18.84;100.00;100094.59;5238222;28;20036;-70
2021/07/06 06:23:27;;;;;;;3.57;1.40;;;;;;;18.88;100.00;100074.59;5240803;28;20056;-71
2021/07/06 06:25:59;;;;;;;2.93;1.50;;;;;;;18.91;100.00;100088.28;5236202;28;20029;-71
2021/07/06 06:28:30;;;;;;;3.63;1.60;;;;;;;18.94;100.00;100087.03;5242493;28;20635;-71
2021/07/06 06:31:01;;;;;;;2.43;1.40;;;;;;;18.99;100.00;100078.50;5236463;28;20038;-71
2021/07/06 06:33:33;;;;;;;4.43;1.40;;;;;;;19.03;100.00;100080.53;5234806;28;20030;-69
2021/07/06 06:36:04;;;;;;;2.25;1.45;;;;;;;19.08;100.00;100091.34;5231500;28;20033;-69
2021/07/06 06:38:36;;;;;;;2.33;1.40;;;;;;;19.13;100.00;100093.38;5234993;28;20029;-71
2021/07/06 06:41:07;;;;;;;3.37;1.30;;;;;;;19.15;100.00;100092.16;5212604;28;20478;-69
2021/07/06 06:43:39;;;;;;;2.43;1.60;;;;;;;19.17;100.00;100092.78;5236984;28;20033;-69
2021/07/06 06:46:10;;;;;;;2.83;1.30;;;;;;;19.25;99.63;100113.00;5237689;28;20125;-69
2021/07/06 06:48:41;;;;;;;3.30;1.37;;;;;;;19.28;99.95;100104.63;5236047;28;20120;-70
2021/07/06 06:51:14;;;;;;;4.50;1.40;;;;;;;19.30;99.45;100107.06;5228500;28;20029;-69
2021/07/06 06:53:45;;;;;;;2.30;1.10;;;;;;;19.29;98.90;100111.56;5236942;28;20018;-70
2021/07/06 06:56:16;;;;;;;3.97;1.20;;;;;;;19.31;98.19;100114.81;5224144;28;20283;-69
2021/07/06 06:58:48;;;;;;;2.57;1.43;;;;;;;19.32;97.57;100118.28;5235897;28;20026;-67
2021/07/06 07:01:19;;;;;;;4.97;1.33;;;;;;;19.36;98.00;100119.56;5237864;28;20056;-67
2021/07/06 07:03:50;;;;;;;2.10;1.07;;;;;;;19.39;97.90;100109.31;5238444;28;20089;-67
2021/07/06 07:06:22;;;;;;;2.70;1.47;;;;;;;19.42;97.21;100113.41;5229960;28;20108;-67
2021/07/06 07:08:53;;;;;;;2.97;1.30;;;;;;;19.49;97.30;100116.88;5241408;28;20032;-68
2021/07/06 07:11:24;;;;;;;2.03;1.00;;;;;;;19.51;96.60;100122.81;5240244;28;20029;-67
2021/07/06 07:13:56;;;;;;;6.30;1.40;;;;;;;19.56;96.65;100119.53;5241301;28;20041;-67
2021/07/06 07:16:27;;;;;;;2.13;0.90;;;;;;;19.54;94.53;100114.41;5240302;28;20105;-68
2021/07/06 07:18:59;;;;;;;4.30;1.30;;;;;;;19.58;94.51;100118.28;5241273;28;20025;-67
2021/07/06 07:21:31;;;;;;;1.63;0.87;;;;;;;19.60;92.91;100123.41;5241790;28;20101;-67
2021/07/06 07:24:02;;;;;;;2.25;1.02;;;;;;;19.63;92.90;100118.53;5234426;28;20018;-67
2021/07/06 07:26:34;;;;;;;1.67;0.90;;;;;;;19.66;91.81;100123.44;5233840;28;20399;-68
2021/07/06 07:29:05;;;;;;;2.33;0.90;;;;;;;19.70;91.31;100129.16;5237657;28;20047;-67
2021/07/06 07:31:37;;;;;;;4.87;1.13;;;;;;;19.71;90.33;100128.13;5241483;28;20083;-67
2021/07/06 07:34:09;;;;;;;2.23;1.10;;;;;;;19.73;90.18;100136.69;5234564;28;20022;-68
2021/07/06 07:36:41;;;;;;;2.43;1.00;;;;;;;19.72;89.19;100136.91;5224836;28;20129;-68
2021/07/06 07:39:13;;;;;;;3.42;1.00;;;;;;;19.64;88.46;100152.03;5234407;28;20435;-68
2021/07/06 07:41:44;;;;;;;2.73;1.00;;;;;;;19.57;86.63;100155.69;5215083;28;20036;-68
2021/07/06 07:44:15;;;;;;;1.40;0.70;;;;;;;19.49;87.70;100148.75;5242481;28;20455;-67
2021/07/06 07:46:47;;;;;;;3.93;1.10;;;;;;;19.43;87.81;100157.53;5234570;28;20433;-68
2021/07/06 07:49:18;;;;;;;2.80;0.67;;;;;;;19.34;87.76;100170.19;5238725;28;20021;-67
2021/07/06 07:51:50;;;;;;;2.00;0.80;;;;;;;19.29;87.56;100166.53;5236289;28;20021;-67
2021/07/06 07:54:22;;;;;;;1.75;0.73;;;;;;;19.25;87.33;100166.13;5226530;28;20022;-68
2021/07/06 07:56:53;;;;;;;1.93;0.70;;;;;;;19.33;87.72;100165.91;5239308;28;20032;-69
2021/07/06 07:59:24;;;;;;;7.33;1.20;;;;;;;19.36;87.34;100172.66;5235339;28;20105;-68
2021/07/06 08:01:56;;;;;;;3.00;0.87;;;;;;;19.50;86.12;100171.63;5232569;28;20044;-67
2021/07/06 08:04:27;;;;;;;2.93;1.00;;;;;;;19.66;86.77;100181.88;5231969;28;20104;-67
2021/07/06 08:06:59;;;;;;;2.70;0.83;;;;;;;19.73;85.91;100181.88;5232766;28;20028;-68
2021/07/06 08:09:30;;;;;;;2.97;1.00;;;;;;;19.66;84.98;100186.38;5236155;28;20018;-67
2021/07/06 08:12:02;;;;;;;1.80;0.87;;;;;;;19.62;85.04;100190.44;5229439;28;20036;-68
2021/07/06 08:14:34;;;;;;;2.22;0.70;;;;;;;19.65;85.40;100195.38;5234858;28;20071;-67
2021/07/06 08:17:05;;;;;;;3.10;0.83;;;;;;;19.67;85.35;100201.31;5231537;28;20045;-67
2021/07/06 08:19:36;;;;;;;1.83;0.70;;;;;;;19.72;85.68;100200.69;5231401;28;20073;-69
2021/07/06 08:22:08;;;;;;;7.90;0.90;;;;;;;20.05;85.10;100203.31;5231784;28;20171;-67
2021/07/06 08:24:39;;;;;;;3.43;0.90;;;;;;;20.27;84.69;100204.69;5235256;28;20025;-67
2021/07/06 08:27:10;;;;;;;2.20;0.73;;;;;;;20.65;83.14;100204.78;5231711;28;20485;-68
2021/07/06 08:29:42;;;;;;;4.13;0.83;;;;;;;20.80;78.79;100211.69;5231508;28;20029;-68
2021/07/06 08:32:13;;;;;;;2.57;1.00;;;;;;;20.95;76.85;100214.03;5229820;28;20428;-68
2021/07/06 08:34:45;;;;;;;3.20;1.27;;;;;;;21.12;76.51;100208.00;5236352;28;20037;-68
2021/07/06 08:37:16;;;;;;;6.13;1.23;;;;;;;21.01;73.59;100221.19;5239620;28;20036;-70
2021/07/06 08:39:47;;;;;;;4.60;1.10;;;;;;;20.78;72.89;100213.72;5237677;28;20351;-70
2021/07/06 08:42:19;;;;;;;3.13;1.10;;;;;;;20.70;73.58;100222.75;5230689;28;20021;-70
2021/07/06 08:44:50;;;;;;;6.07;1.27;;;;;;;20.57;71.83;100215.66;5232310;28;20021;-67
2021/07/06 08:47:23;;;;;;;6.00;1.87;;;;;;;20.77;70.76;100220.91;5235145;28;20021;-68
2021/07/06 08:49:55;;;;;;;3.38;1.10;;;;;;;20.70;71.59;100227.28;5239087;28;20083;-68
2021/07/06 08:52:27;;;;;;;4.53;1.00;;;;;;;20.68;72.08;100237.31;5239272;28;20017;-67
2021/07/06 08:54:59;;;;;;;3.38;1.08;;;;;;;20.52;73.53;100247.41;5236258;28;20024;-67
2021/07/06 08:57:30;;;;;;;3.70;1.17;;;;;;;20.45;73.30;100249.22;5239781;28;20541;-67
2021/07/06 09:00:03;;;;;;;8.73;1.80;;;;;;;20.34;73.30;100250.72;5239053;28;20027;-69
2021/07/06 09:02:34;;;;;;;6.25;1.23;;;;;;;20.24;73.53;100252.16;5230413;28;20487;-68
2021/07/06 09:05:19;;;;;;;5.57;1.47;;;;;;;20.34;74.77;100249.88;5217178;28;20061;-67
2021/07/06 09:07:50;;;;;;;3.75;1.20;;;;;;;20.33;73.38;100245.59;5235482;28;20037;-68
2021/07/06 09:10:36;;;;;;;4.63;1.43;;;;;;;20.36;73.31;100247.84;5238828;28;20025;-68
2021/07/06 09:13:28;;;;;;;5.93;1.55;;;;;;;20.74;73.49;100260.44;5237828;28;20021;-68
2021/07/06 09:16:01;;;;;;;5.90;1.13;;;;;;;21.00;71.35;100251.50;5234863;28;20071;-67
2021/07/06 09:18:34;;;;;;;3.55;1.20;;;;;;;20.95;70.19;100241.50;5237878;28;20483;-68
2021/07/06 09:21:08;;;;;;;4.13;1.48;;;;;;;20.90;69.71;100257.28;5236747;28;20029;-69
2021/07/06 09:23:49;;;;;;;4.90;1.15;;;;;;;20.81;69.63;100238.06;5228255;28;20094;-67
2021/07/06 09:26:22;;;;;;;4.43;1.42;;;;;;;20.59;71.04;100261.50;5231178;28;20490;-68
2021/07/06 09:28:56;;;;;;;5.35;1.40;;;;;;;20.67;71.13;100259.63;5236263;28;20072;-68
2021/07/06 09:31:37;;;;;;;5.63;1.10;;;;;;;20.87;70.65;100253.22;5238048;28;20175;-67
2021/07/06 09:34:13;;;;;;;5.28;1.23;;;;;;;21.17;71.74;100254.47;5220972;28;20025;-68
2021/07/06 09:36:48;;;;;;;3.60;1.05;;;;;;;21.26;69.27;100254.03;5232414;28;20036;-67
2021/07/06 09:39:22;;;;;;;5.05;0.88;;;;;;;21.33;68.69;100256.69;5238499;28;20387;-67
2021/07/06 09:42:02;;;;;;;7.40;1.30;;;;;;;21.61;70.85;100259.75;5234818;28;20033;-68
2021/07/06 09:44:36;;;;;;;5.47;1.15;;;;;;;21.35;68.91;100266.06;5231283;28;20038;-68
2021/07/06 09:47:12;;;;;;;1.80;0.90;;;;;;;21.19;69.86;100268.41;5234698;28;20209;-68
2021/07/06 09:49:54;;;;;;;5.72;1.15;;;;;;;21.22;71.42;100282.13;5232678;28;20025;-68
2021/07/06 09:52:25;;;;;;;3.38;1.13;;;;;;;21.08;70.13;100296.53;5234194;28;20392;-68
2021/07/06 09:54:57;;;;;;;4.37;1.10;;;;;;;21.00;69.53;100297.59;5229524;28;20029;-68
2021/07/06 09:57:29;;;;;;;5.37;1.23;;;;;;;20.97;69.18;100300.69;5229492;28;20032;-69
2021/07/06 10:00:07;;;;;;;;;;;;;;;21.19;68.00;100311.03;5227242;28;20029;-68
2021/07/06 10:02:41;;;;;;;5.30;1.40;;;;;;;21.22;68.42;100311.44;5229006;28;19922;-68
2021/07/06 10:05:16;;;;;;;7.13;1.50;;;;;;;21.47;67.25;100300.84;5232262;28;20119;-68
2021/07/06 10:07:47;;;;;;;5.97;1.40;;;;;;;21.64;66.94;100300.34;5232536;28;20041;-67
2021/07/06 10:10:19;;;;;;;6.20;1.33;;;;;;;21.71;65.46;100311.78;5227436;28;20022;-69
2021/07/06 10:12:51;;;;;;;4.15;1.23;;;;;;;21.75;63.08;100319.13;5225366;28;20033;-69
2021/07/06 10:15:23;;;;;;;9.00;1.83;;;;;;;21.75;62.09;100319.13;5233807;28;20021;-68
2021/07/06 10:17:56;;;;;;;8.75;1.42;;;;;;;21.66;61.87;100323.06;5234968;28;20032;-69
2021/07/06 10:20:28;;;;;;;;;;;;;;;22.07;62.72;100316.41;5234369;28;20356;-68
2021/07/06 10:23:01;;;;;;;9.75;1.80;;;;;;;22.27;61.34;100330.41;5234783;28;20011;-68
2021/07/06 10:25:34;;;;;;;4.10;1.30;;;;;;;22.15;60.13;100334.84;5228058;28;20033;-68
2021/07/06 10:28:13;;;;;;;8.32;1.85;;;;;;;21.58;60.44;100363.31;5229352;28;20458;-68
2021/07/06 10:30:46;;;;;;;6.47;1.70;;;;;;;21.29;61.59;100362.84;5235630;28;20072;-68
2021/07/06 10:33:33;;;;;;;6.63;1.38;;;;;;;21.03;62.17;100365.63;5225388;28;20431;-68
2021/07/06 10:36:05;;;;;;;6.47;1.50;;;;;;;20.73;63.29;100378.59;5236718;28;20026;-68
2021/07/06 10:38:41;;;;;;;9.17;2.10;;;;;;;20.81;63.48;100373.84;5239771;28;20064;-68
2021/07/06 10:41:19;;;;;;;5.78;1.33;;;;;;;20.92;63.17;100382.25;5241833;28;20030;-68
2021/07/06 10:43:53;;;;;;;10.13;2.00;;;;;;;20.92;62.26;100374.25;5240226;28;20394;-67
2021/07/06 10:46:31;;;;;;;7.18;1.73;;;;;;;21.17;60.51;100372.50;5237216;28;20501;-69
2021/07/06 10:49:10;;;;;;;5.93;1.60;;;;;;;21.33;58.88;100373.94;5221680;28;20029;-70
2021/07/06 10:51:41;;;;;;;11.18;1.42;;;;;;;21.50;59.11;100375.06;5219658;28;20053;-69
2021/07/06 10:54:33;;;;;;;14.43;2.07;;;;;;;21.36;58.76;100368.16;5235670;28;20049;-68
2021/07/06 10:57:04;;;;;;;11.30;1.98;;;;;;;21.52;59.70;100373.00;5229892;28;20107;-69
2021/07/06 10:59:36;;;;;;;8.33;1.60;;;;;;;21.58;57.33;100376.66;5238982;28;20072;-68
2021/07/06 11:02:21;;;;;;;8.30;1.08;;;;;;;21.46;55.69;100375.69;5241144;28;20502;-68
2021/07/06 11:04:56;;;;;;;13.48;2.30;;;;;;;21.41;56.45;100386.19;5242307;28;20033;-68
2021/07/06 11:07:30;;;;;;;12.30;2.00;;;;;;;21.12;55.70;100381.13;5241644;28;20163;-68
2021/07/06 11:10:04;;;;;;;12.05;1.73;;;;;;;21.02;56.58;100387.91;5227997;28;20021;-70
2021/07/06 11:12:38;;;;;;;10.85;1.48;;;;;;;20.92;57.64;100388.38;5235410;28;20025;-70
2021/07/06 11:15:12;;;;;;;10.23;1.73;;;;;;;20.90;58.07;100395.75;5236738;28;20041;-68
2021/07/06 11:17:45;;;;;;;9.50;1.52;;;;;;;20.92;59.35;100392.88;5241702;28;20053;-68
2021/07/06 11:20:17;;;;;;;;;;;;;;;21.22;59.21;100399.34;5242022;28;20030;-68
2021/07/06 11:22:50;;;;;;;10.13;2.03;;;;;;;21.01;58.95;100396.94;5233669;28;19921;-68
2021/07/06 11:25:31;;;;;;;7.38;1.33;;;;;;;20.91;58.37;100405.38;5237391;28;20060;-68
2021/07/06 11:28:03;;;;;;;14.18;1.75;;;;;;;21.02;58.06;100404.72;5240818;28;20252;-69
2021/07/06 11:30:47;;;;;;;11.98;1.65;;;;;;;21.13;58.11;100406.72;5240924;28;20474;-69
2021/07/06 11:33:22;;;;;;;14.10;2.05;;;;;;;21.22;58.10;100409.19;5226779;28;20026;-68
2021/07/06 11:35:56;;;;;;;6.80;1.55;;;;;;;21.08;57.13;100400.41;5238244;28;20052;-68
2021/07/06 11:38:40;;;;;;;10.25;1.60;;;;;;;21.07;57.28;100396.94;5239660;28;20104;-68
2021/07/06 11:41:14;;;;;;;9.13;1.30;;;;;;;21.06;58.04;100399.78;5239011;28;20055;-68
2021/07/06 11:43:46;;;;;;;6.80;1.40;;;;;;;21.06;58.01;100399.78;5237833;28;20025;-68
2021/07/06 11:46:19;;;;;;;5.00;1.10;;;;;;;20.97;57.86;100409.88;5239384;28;20482;-68